createdAt,value
2019-05-02T00:00:01.000Z,6.875
2019-05-02T00:01:01.000Z,6.75
2019-05-02T00:02:02.000Z,6.75
2019-05-02T00:03:01.000Z,6.75
2019-05-02T00:04:01.000Z,6.812
2019-05-02T00:05:02.000Z,6.812
2019-05-02T00:06:01.000Z,6.812
2019-05-02T00:07:01.000Z,6.75
2019-05-02T00:08:01.000Z,6.75
2019-05-02T00:09:02.000Z,6.75
2019-05-02T00:10:02.000Z,6.75
2019-05-02T00:11:01.000Z,6.687
2019-05-02T00:12:01.000Z,6.625
2019-05-02T00:13:02.000Z,6.625
2019-05-02T00:14:01.000Z,6.562
2019-05-02T00:15:02.000Z,6.625
2019-05-02T00:16:01.000Z,6.625
2019-05-02T00:17:02.000Z,6.562
2019-05-02T00:18:02.000Z,6.5
2019-05-02T00:19:02.000Z,6.437
2019-05-02T00:20:02.000Z,6.437
2019-05-02T00:21:01.000Z,6.437
2019-05-02T00:22:01.000Z,6.375
2019-05-02T00:23:02.000Z,6.25
2019-05-02T00:24:01.000Z,6.187
2019-05-02T00:25:01.000Z,6.187
2019-05-02T00:26:01.000Z,6.187
2019-05-02T00:27:02.000Z,6.125
2019-05-02T00:28:01.000Z,6.062
2019-05-02T00:29:01.000Z,6
2019-05-02T00:30:01.000Z,5.937
2019-05-02T00:31:01.000Z,5.937
2019-05-02T00:32:01.000Z,6
2019-05-02T00:33:02.000Z,6
2019-05-02T00:34:01.000Z,5.937
2019-05-02T00:35:01.000Z,6
2019-05-02T00:36:02.000Z,6.062
2019-05-02T00:37:01.000Z,6.062
2019-05-02T00:38:01.000Z,6.062
2019-05-02T00:39:02.000Z,6.062
2019-05-02T00:40:01.000Z,5.937
2019-05-02T00:41:02.000Z,5.937
2019-05-02T00:42:01.000Z,5.937
2019-05-02T00:43:01.000Z,6
2019-05-02T00:44:01.000Z,6
2019-05-02T00:45:01.000Z,5.937
2019-05-02T00:46:01.000Z,5.937
2019-05-02T00:47:02.000Z,6
2019-05-02T00:48:01.000Z,6
2019-05-02T00:49:01.000Z,5.937
2019-05-02T00:50:02.000Z,5.875
2019-05-02T00:51:02.000Z,5.937
2019-05-02T00:52:01.000Z,5.937
2019-05-02T00:53:01.000Z,5.937
2019-05-02T00:54:02.000Z,5.875
2019-05-02T00:55:01.000Z,5.812
2019-05-02T00:56:02.000Z,5.875
2019-05-02T00:57:01.000Z,5.937
2019-05-02T00:58:02.000Z,5.937
2019-05-02T00:59:02.000Z,6
2019-05-02T01:00:01.000Z,6
2019-05-02T01:01:01.000Z,6.125
2019-05-02T01:02:01.000Z,6.062
2019-05-02T01:03:02.000Z,6.062
2019-05-02T01:04:01.000Z,6
2019-05-02T01:05:02.000Z,6
2019-05-02T01:06:02.000Z,6
2019-05-02T01:07:01.000Z,6.062
2019-05-02T01:08:02.000Z,6.062
2019-05-02T01:09:01.000Z,6.062
2019-05-02T01:10:01.000Z,6.187
2019-05-02T01:11:01.000Z,6.187
2019-05-02T01:12:02.000Z,6.25
2019-05-02T01:13:01.000Z,6.312
2019-05-02T01:14:01.000Z,6.312
2019-05-02T01:15:02.000Z,6.312
2019-05-02T01:16:02.000Z,6.375
2019-05-02T01:17:01.000Z,6.437
2019-05-02T01:18:01.000Z,6.437
2019-05-02T01:19:02.000Z,6.5
2019-05-02T01:20:01.000Z,6.562
2019-05-02T01:21:01.000Z,6.562
2019-05-02T01:22:01.000Z,6.625
2019-05-02T01:23:01.000Z,6.687
2019-05-02T01:24:01.000Z,6.687
2019-05-02T01:25:01.000Z,6.75
2019-05-02T01:26:01.000Z,6.75
2019-05-02T01:27:01.000Z,6.812
2019-05-02T01:28:02.000Z,6.875
2019-05-02T01:29:01.000Z,6.875
2019-05-02T01:30:02.000Z,6.875
2019-05-02T01:31:02.000Z,6.937
2019-05-02T01:32:01.000Z,6.937
2019-05-02T01:33:01.000Z,7
2019-05-02T01:34:01.000Z,7
2019-05-02T01:35:01.000Z,7
2019-05-02T01:36:02.000Z,7
2019-05-02T01:37:01.000Z,7.062
2019-05-02T01:38:01.000Z,7.062
2019-05-02T01:39:02.000Z,7.062
2019-05-02T01:40:01.000Z,7.125
2019-05-02T01:41:01.000Z,7.187
2019-05-02T01:42:01.000Z,7.187
2019-05-02T01:43:02.000Z,7.187
2019-05-02T01:44:01.000Z,7.187
2019-05-02T01:45:01.000Z,7.187
2019-05-02T01:46:01.000Z,7.25
2019-05-02T01:47:02.000Z,7.25
2019-05-02T01:48:02.000Z,7.25
2019-05-02T01:49:01.000Z,7.312
2019-05-02T01:50:02.000Z,7.25
2019-05-02T01:51:01.000Z,7.312
2019-05-02T01:52:01.000Z,7.312
2019-05-02T01:53:02.000Z,7.312
2019-05-02T01:54:01.000Z,7.375
2019-05-02T01:55:01.000Z,7.375
2019-05-02T01:56:01.000Z,7.375
2019-05-02T01:57:02.000Z,7.375
2019-05-02T01:58:01.000Z,7.375
2019-05-02T01:59:02.000Z,7.437
2019-05-02T02:00:02.000Z,7.437
2019-05-02T02:01:01.000Z,7.437
2019-05-02T02:02:02.000Z,7.437
2019-05-02T02:03:02.000Z,7.437
2019-05-02T02:04:01.000Z,7.437
2019-05-02T02:05:01.000Z,7.5
2019-05-02T02:06:02.000Z,7.5
2019-05-02T02:07:01.000Z,7.5
2019-05-02T02:08:02.000Z,7.437
2019-05-02T02:09:02.000Z,7.5
2019-05-02T02:10:01.000Z,7.5
2019-05-02T02:11:02.000Z,7.5
2019-05-02T02:12:01.000Z,7.5
2019-05-02T02:13:01.000Z,7.5
2019-05-02T02:14:01.000Z,7.5
2019-05-02T02:15:02.000Z,7.5
2019-05-02T02:16:01.000Z,7.5
2019-05-02T02:17:01.000Z,7.5
2019-05-02T02:18:01.000Z,7.5
2019-05-02T02:19:02.000Z,7.5
2019-05-02T02:20:01.000Z,7.5
2019-05-02T02:21:01.000Z,7.5
2019-05-02T02:22:02.000Z,7.5
2019-05-02T02:23:01.000Z,7.5
2019-05-02T02:24:02.000Z,7.5
2019-05-02T02:25:01.000Z,7.5
2019-05-02T02:26:01.000Z,7.5
2019-05-02T02:27:02.000Z,7.5
2019-05-02T02:28:02.000Z,7.562
2019-05-02T02:29:02.000Z,7.5
2019-05-02T02:30:01.000Z,7.562
2019-05-02T02:31:02.000Z,7.5
2019-05-02T02:32:01.000Z,7.562
2019-05-02T02:33:01.000Z,7.5
2019-05-02T02:34:02.000Z,7.5
2019-05-02T02:35:02.000Z,7.5
2019-05-02T02:36:01.000Z,7.437
2019-05-02T02:37:01.000Z,7.437
2019-05-02T02:38:02.000Z,7.437
2019-05-02T02:39:02.000Z,7.437
2019-05-02T02:40:02.000Z,7.437
2019-05-02T02:41:01.000Z,7.5
2019-05-02T02:42:01.000Z,7.437
2019-05-02T02:43:01.000Z,7.437
2019-05-02T02:44:01.000Z,7.437
2019-05-02T02:45:01.000Z,7.5
2019-05-02T02:46:01.000Z,7.5
2019-05-02T02:47:01.000Z,7.5
2019-05-02T02:48:01.000Z,7.5
2019-05-02T02:49:01.000Z,7.5
2019-05-02T02:50:01.000Z,7.437
2019-05-02T02:51:02.000Z,7.437
2019-05-02T02:52:02.000Z,7.437
2019-05-02T02:53:02.000Z,7.437
2019-05-02T02:54:01.000Z,7.437
2019-05-02T02:55:02.000Z,7.437
2019-05-02T02:56:01.000Z,7.437
2019-05-02T02:57:02.000Z,7.375
2019-05-02T02:58:01.000Z,7.375
2019-05-02T02:59:01.000Z,7.375
2019-05-02T03:00:02.000Z,7.375
2019-05-02T03:01:02.000Z,7.375
2019-05-02T03:02:01.000Z,7.312
2019-05-02T03:03:01.000Z,7.312
2019-05-02T03:04:02.000Z,7.312
2019-05-02T03:05:02.000Z,7.312
2019-05-02T03:06:01.000Z,7.312
2019-05-02T03:07:02.000Z,7.312
2019-05-02T03:08:02.000Z,7.312
2019-05-02T03:09:01.000Z,7.312
2019-05-02T03:10:02.000Z,7.25
2019-05-02T03:11:01.000Z,7.312
2019-05-02T03:12:01.000Z,7.25
2019-05-02T03:13:02.000Z,7.25
2019-05-02T03:14:01.000Z,7.25
2019-05-02T03:15:02.000Z,7.25
2019-05-02T03:16:02.000Z,7.25
2019-05-02T03:17:01.000Z,7.312
2019-05-02T03:18:01.000Z,7.25
2019-05-02T03:19:02.000Z,7.25
2019-05-02T03:20:01.000Z,7.25
2019-05-02T03:21:01.000Z,7.25
2019-05-02T03:22:02.000Z,7.312
2019-05-02T03:23:01.000Z,7.25
2019-05-02T03:24:02.000Z,7.25
2019-05-02T03:25:01.000Z,7.25
2019-05-02T03:26:01.000Z,7.25
2019-05-02T03:27:01.000Z,7.25
2019-05-02T03:28:01.000Z,7.25
2019-05-02T03:29:01.000Z,7.25
2019-05-02T03:30:02.000Z,7.25
2019-05-02T03:31:01.000Z,7.25
2019-05-02T03:32:01.000Z,7.25
2019-05-02T03:33:02.000Z,7.25
2019-05-02T03:34:01.000Z,7.25
2019-05-02T03:35:02.000Z,7.25
2019-05-02T03:36:01.000Z,7.25
2019-05-02T03:37:01.000Z,7.25
2019-05-02T03:38:02.000Z,7.25
2019-05-02T03:39:02.000Z,7.25
2019-05-02T03:40:01.000Z,7.25
2019-05-02T03:41:02.000Z,7.25
2019-05-02T03:42:02.000Z,7.312
2019-05-02T03:43:01.000Z,7.312
2019-05-02T03:44:02.000Z,7.312
2019-05-02T03:45:01.000Z,7.312
2019-05-02T03:46:02.000Z,7.312
2019-05-02T03:47:01.000Z,7.25
2019-05-02T03:48:01.000Z,7.25
2019-05-02T03:49:02.000Z,7.25
2019-05-02T03:50:02.000Z,7.312
2019-05-02T03:51:02.000Z,7.312
2019-05-02T03:52:01.000Z,7.25
2019-05-02T03:53:01.000Z,7.25
2019-05-02T03:54:01.000Z,7.25
2019-05-02T03:55:02.000Z,7.312
2019-05-02T03:56:01.000Z,7.312
2019-05-02T03:57:02.000Z,7.312
2019-05-02T03:58:01.000Z,7.312
2019-05-02T03:59:02.000Z,7.312
2019-05-02T04:00:01.000Z,7.312
2019-05-02T04:01:01.000Z,7.312
2019-05-02T04:02:02.000Z,7.312
2019-05-02T04:03:01.000Z,7.312
2019-05-02T04:04:01.000Z,7.375
2019-05-02T04:05:02.000Z,7.312
2019-05-02T04:06:01.000Z,7.375
2019-05-02T04:07:02.000Z,7.375
2019-05-02T04:08:01.000Z,7.375
2019-05-02T04:09:01.000Z,7.375
2019-05-02T04:10:01.000Z,7.437
2019-05-02T04:11:02.000Z,7.437
2019-05-02T04:12:01.000Z,7.437
2019-05-02T04:13:02.000Z,7.437
2019-05-02T04:14:01.000Z,7.437
2019-05-02T04:15:01.000Z,7.437
2019-05-02T04:16:02.000Z,7.437
2019-05-02T04:17:02.000Z,7.437
2019-05-02T04:18:02.000Z,7.437
2019-05-02T04:19:01.000Z,7.437
2019-05-02T04:20:01.000Z,7.437
2019-05-02T04:21:01.000Z,7.437
2019-05-02T04:22:02.000Z,7.437
2019-05-02T04:23:01.000Z,7.5
2019-05-02T04:24:02.000Z,7.5
2019-05-02T04:25:01.000Z,7.5
2019-05-02T04:26:01.000Z,7.5
2019-05-02T04:27:01.000Z,7.5
2019-05-02T04:28:01.000Z,7.5
2019-05-02T04:29:01.000Z,7.5
2019-05-02T04:30:02.000Z,7.5
2019-05-02T04:31:02.000Z,7.5
2019-05-02T04:32:02.000Z,7.5
2019-05-02T04:33:01.000Z,7.5
2019-05-02T04:34:01.000Z,7.5
2019-05-02T04:35:02.000Z,7.5
2019-05-02T04:36:01.000Z,7.5
2019-05-02T04:37:02.000Z,7.5
2019-05-02T04:38:01.000Z,7.5
2019-05-02T04:39:02.000Z,7.5
2019-05-02T04:40:01.000Z,7.562
2019-05-02T04:41:01.000Z,7.562
2019-05-02T04:42:01.000Z,7.562
2019-05-02T04:43:02.000Z,7.562
2019-05-02T04:44:01.000Z,7.562
2019-05-02T04:45:01.000Z,7.562
2019-05-02T04:46:01.000Z,7.562
2019-05-02T04:47:01.000Z,7.625
2019-05-02T04:48:01.000Z,7.625
2019-05-02T04:49:02.000Z,7.625
2019-05-02T04:50:01.000Z,7.625
2019-05-02T04:51:02.000Z,7.625
2019-05-02T04:52:01.000Z,7.625
2019-05-02T04:53:02.000Z,7.625
2019-05-02T04:54:01.000Z,7.625
2019-05-02T04:55:01.000Z,7.687
2019-05-02T04:56:02.000Z,7.687
2019-05-02T04:57:02.000Z,7.687
2019-05-02T04:58:01.000Z,7.687
2019-05-02T04:59:02.000Z,7.75
2019-05-02T05:00:02.000Z,7.75
2019-05-02T05:01:02.000Z,7.75
2019-05-02T05:02:01.000Z,7.75
2019-05-02T05:03:01.000Z,7.75
2019-05-02T05:04:01.000Z,7.812
2019-05-02T05:05:01.000Z,7.75
2019-05-02T05:06:02.000Z,7.75
2019-05-02T05:07:01.000Z,7.75
2019-05-02T05:08:02.000Z,7.687
2019-05-02T05:09:01.000Z,7.687
2019-05-02T05:10:01.000Z,7.687
2019-05-02T05:11:01.000Z,7.687
2019-05-02T05:12:01.000Z,7.687
2019-05-02T05:13:01.000Z,7.687
2019-05-02T05:14:01.000Z,7.687
2019-05-02T05:15:02.000Z,7.687
2019-05-02T05:16:01.000Z,7.75
2019-05-02T05:17:01.000Z,7.812
2019-05-02T05:18:02.000Z,7.75
2019-05-02T05:19:01.000Z,7.75
2019-05-02T05:20:01.000Z,7.75
2019-05-02T05:21:01.000Z,7.812
2019-05-02T05:22:01.000Z,7.75
2019-05-02T05:23:02.000Z,7.812
2019-05-02T05:24:01.000Z,7.812
2019-05-02T05:25:01.000Z,7.75
2019-05-02T05:26:02.000Z,7.812
2019-05-02T05:27:02.000Z,7.75
2019-05-02T05:28:01.000Z,7.812
2019-05-02T05:29:01.000Z,7.812
2019-05-02T05:30:01.000Z,7.812
2019-05-02T05:31:02.000Z,7.812
2019-05-02T05:32:01.000Z,7.812
2019-05-02T05:33:01.000Z,7.875
2019-05-02T05:34:02.000Z,7.875
2019-05-02T05:35:02.000Z,7.875
2019-05-02T05:36:02.000Z,7.937
2019-05-02T05:37:01.000Z,7.875
2019-05-02T05:38:01.000Z,7.875
2019-05-02T05:39:02.000Z,7.875
2019-05-02T05:40:01.000Z,7.937
2019-05-02T05:41:01.000Z,7.937
2019-05-02T05:42:01.000Z,7.937
2019-05-02T05:43:02.000Z,8
2019-05-02T05:44:02.000Z,8
2019-05-02T05:45:01.000Z,8
2019-05-02T05:46:01.000Z,8.062
2019-05-02T05:47:01.000Z,8.062
2019-05-02T05:48:02.000Z,8.125
2019-05-02T05:49:01.000Z,8.125
2019-05-02T05:50:02.000Z,8.062
2019-05-02T05:51:01.000Z,8.125
2019-05-02T05:52:02.000Z,8.187
2019-05-02T05:53:01.000Z,8.187
2019-05-02T05:54:02.000Z,8.187
2019-05-02T05:55:02.000Z,8.187
2019-05-02T05:56:01.000Z,8.187
2019-05-02T05:57:01.000Z,8.187
2019-05-02T05:58:02.000Z,8.187
2019-05-02T05:59:02.000Z,8.125
2019-05-02T06:00:02.000Z,8.125
2019-05-02T06:01:01.000Z,8.062
2019-05-02T06:02:01.000Z,8.062
2019-05-02T06:03:02.000Z,8.062
2019-05-02T06:04:01.000Z,8.125
2019-05-02T06:05:02.000Z,8.062
2019-05-02T06:06:02.000Z,8.062
2019-05-02T06:07:01.000Z,8.062
2019-05-02T06:08:01.000Z,8.062
2019-05-02T06:09:02.000Z,8
2019-05-02T06:10:01.000Z,8
2019-05-02T06:11:01.000Z,8.062
2019-05-02T06:12:01.000Z,8.125
2019-05-02T06:13:02.000Z,8.125
2019-05-02T06:14:01.000Z,8.125
2019-05-02T06:15:01.000Z,8.187
2019-05-02T06:16:02.000Z,8.187
2019-05-02T06:17:02.000Z,8.25
2019-05-02T06:18:02.000Z,8.312
2019-05-02T06:19:01.000Z,8.312
2019-05-02T06:20:01.000Z,8.437
2019-05-02T06:21:01.000Z,8.5
2019-05-02T06:22:01.000Z,8.562
2019-05-02T06:23:02.000Z,8.562
2019-05-02T06:24:01.000Z,8.625
2019-05-02T06:25:01.000Z,8.687
2019-05-02T06:26:02.000Z,8.687
2019-05-02T06:27:01.000Z,8.75
2019-05-02T06:28:01.000Z,8.75
2019-05-02T06:29:02.000Z,8.812
2019-05-02T06:30:01.000Z,8.875
2019-05-02T06:31:01.000Z,8.937
2019-05-02T06:32:02.000Z,8.937
2019-05-02T06:33:01.000Z,8.937
2019-05-02T06:34:02.000Z,9
2019-05-02T06:35:01.000Z,8.937
2019-05-02T06:36:01.000Z,9
2019-05-02T06:37:01.000Z,9
2019-05-02T06:38:01.000Z,9
2019-05-02T06:39:02.000Z,9
2019-05-02T06:40:01.000Z,8.937
2019-05-02T06:41:02.000Z,9
2019-05-02T06:42:01.000Z,9
2019-05-02T06:43:01.000Z,9.062
2019-05-02T06:44:01.000Z,9.125
2019-05-02T06:45:02.000Z,9.187
2019-05-02T06:46:02.000Z,9.375
2019-05-02T06:47:02.000Z,9.5
2019-05-02T06:48:01.000Z,9.625
2019-05-02T06:49:01.000Z,9.625
2019-05-02T06:50:01.000Z,9.625
2019-05-02T06:51:01.000Z,9.625
2019-05-02T06:52:01.000Z,9.687
2019-05-02T06:53:02.000Z,9.812
2019-05-02T06:54:01.000Z,9.812
2019-05-02T06:55:02.000Z,9.687
2019-05-02T06:56:01.000Z,9.687
2019-05-02T06:57:01.000Z,9.75
2019-05-02T06:58:02.000Z,9.75
2019-05-02T06:59:01.000Z,9.75
2019-05-02T07:00:01.000Z,9.812
2019-05-02T07:01:02.000Z,9.812
2019-05-02T07:02:01.000Z,9.875
2019-05-02T07:03:01.000Z,9.75
2019-05-02T07:04:02.000Z,9.625
2019-05-02T07:05:01.000Z,9.562
2019-05-02T07:06:01.000Z,9.562
2019-05-02T07:07:01.000Z,9.625
2019-05-02T07:08:01.000Z,9.687
2019-05-02T07:09:02.000Z,9.75
2019-05-02T07:10:01.000Z,9.75
2019-05-02T07:11:01.000Z,9.75
2019-05-02T07:12:01.000Z,9.75
2019-05-02T07:13:01.000Z,9.687
2019-05-02T07:14:01.000Z,9.687
2019-05-02T07:15:01.000Z,9.625
2019-05-02T07:16:01.000Z,9.5
2019-05-02T07:17:02.000Z,9.5
2019-05-02T07:18:01.000Z,9.5
2019-05-02T07:19:01.000Z,9.437
2019-05-02T07:20:01.000Z,9.5
2019-05-02T07:21:01.000Z,9.437
2019-05-02T07:22:01.000Z,9.437
2019-05-02T07:23:01.000Z,9.375
2019-05-02T07:24:01.000Z,9.375
2019-05-02T07:25:01.000Z,9.437
2019-05-02T07:26:02.000Z,9.5
2019-05-02T07:27:01.000Z,9.5
2019-05-02T07:28:01.000Z,9.5
2019-05-02T07:29:01.000Z,9.562
2019-05-02T07:30:02.000Z,9.562
2019-05-02T07:31:01.000Z,9.562
2019-05-02T07:32:02.000Z,9.5
2019-05-02T07:33:01.000Z,9.5
2019-05-02T07:34:01.000Z,9.437
2019-05-02T07:35:01.000Z,9.375
2019-05-02T07:36:02.000Z,9.375
2019-05-02T07:37:01.000Z,9.437
2019-05-02T07:38:01.000Z,9.437
2019-05-02T07:39:02.000Z,9.437
2019-05-02T07:40:01.000Z,9.437
2019-05-02T07:41:01.000Z,9.375
2019-05-02T07:42:02.000Z,9.375
2019-05-02T07:43:01.000Z,9.437
2019-05-02T07:44:01.000Z,9.5
2019-05-02T07:45:01.000Z,9.5
2019-05-02T07:46:01.000Z,9.562
2019-05-02T07:47:02.000Z,9.625
2019-05-02T07:48:01.000Z,9.687
2019-05-02T07:49:02.000Z,9.75
2019-05-02T07:50:01.000Z,9.75
2019-05-02T07:51:01.000Z,9.812
2019-05-02T07:52:01.000Z,9.937
2019-05-02T07:53:02.000Z,9.937
2019-05-02T07:54:01.000Z,10
2019-05-02T07:55:02.000Z,10
2019-05-02T07:56:02.000Z,10.125
2019-05-02T07:57:02.000Z,10.125
2019-05-02T07:58:01.000Z,10.25
2019-05-02T07:59:01.000Z,10.375
2019-05-02T08:00:01.000Z,10.5
2019-05-02T08:01:02.000Z,10.562
2019-05-02T08:02:01.000Z,10.687
2019-05-02T08:03:01.000Z,10.75
2019-05-02T08:04:01.000Z,10.75
2019-05-02T08:05:02.000Z,10.562
2019-05-02T08:06:01.000Z,10.562
2019-05-02T08:07:02.000Z,10.5
2019-05-02T08:08:01.000Z,10.562
2019-05-02T08:09:01.000Z,10.625
2019-05-02T08:10:02.000Z,10.625
2019-05-02T08:11:01.000Z,10.562
2019-05-02T08:12:02.000Z,10.625
2019-05-02T08:13:02.000Z,10.562
2019-05-02T08:14:01.000Z,10.562
2019-05-02T08:15:01.000Z,10.562
2019-05-02T08:16:02.000Z,10.562
2019-05-02T08:17:02.000Z,10.562
2019-05-02T08:18:02.000Z,10.625
2019-05-02T08:19:01.000Z,10.687
2019-05-02T08:20:01.000Z,10.687
2019-05-02T08:21:01.000Z,10.562
2019-05-02T08:22:01.000Z,10.625
2019-05-02T08:23:01.000Z,10.625
2019-05-02T08:24:01.000Z,10.625
2019-05-02T08:25:02.000Z,10.625
2019-05-02T08:26:02.000Z,10.625
2019-05-02T08:27:02.000Z,10.687
2019-05-02T08:28:02.000Z,10.812
2019-05-02T08:29:01.000Z,10.875
2019-05-02T08:30:01.000Z,10.937
2019-05-02T08:31:01.000Z,10.937
2019-05-02T08:32:01.000Z,11
2019-05-02T08:33:02.000Z,11.062
2019-05-02T08:34:01.000Z,11.125
2019-05-02T08:35:02.000Z,11.187
2019-05-02T08:36:01.000Z,11.25
2019-05-02T08:37:01.000Z,11.312
2019-05-02T08:38:01.000Z,11.437
2019-05-02T08:39:02.000Z,11.375
2019-05-02T08:40:01.000Z,11.437
2019-05-02T08:41:01.000Z,11.562
2019-05-02T08:42:02.000Z,11.625
2019-05-02T08:43:01.000Z,11.562
2019-05-02T08:44:02.000Z,11.625
2019-05-02T08:45:01.000Z,11.687
2019-05-02T08:46:02.000Z,11.625
2019-05-02T08:47:02.000Z,11.5
2019-05-02T08:48:01.000Z,11.375
2019-05-02T08:49:01.000Z,11.312
2019-05-02T08:50:02.000Z,11.312
2019-05-02T08:51:01.000Z,11.375
2019-05-02T08:52:02.000Z,11.437
2019-05-02T08:53:01.000Z,11.437
2019-05-02T08:54:01.000Z,11.437
2019-05-02T08:55:02.000Z,11.375
2019-05-02T08:56:01.000Z,11.437
2019-05-02T08:57:01.000Z,11.437
2019-05-02T08:58:01.000Z,11.437
2019-05-02T08:59:01.000Z,11.375
2019-05-02T09:00:01.000Z,11.312
2019-05-02T09:01:02.000Z,11.312
2019-05-02T09:02:02.000Z,11.375
2019-05-02T09:03:01.000Z,11.5
2019-05-02T09:04:01.000Z,11.562
2019-05-02T09:05:02.000Z,11.687
2019-05-02T09:06:01.000Z,11.75
2019-05-02T09:07:01.000Z,11.625
2019-05-02T09:08:01.000Z,11.5
2019-05-02T09:09:02.000Z,11.437
2019-05-02T09:10:01.000Z,11.375
2019-05-02T09:11:02.000Z,11.312
2019-05-02T09:12:02.000Z,11.25
2019-05-02T09:13:01.000Z,11.312
2019-05-02T09:14:01.000Z,11.25
2019-05-02T09:15:02.000Z,11.25
2019-05-02T09:16:01.000Z,11.312
2019-05-02T09:17:01.000Z,11.312
2019-05-02T09:18:01.000Z,11.312
2019-05-02T09:19:01.000Z,11.25
2019-05-02T09:20:02.000Z,11.312
2019-05-02T09:21:02.000Z,11.312
2019-05-02T09:22:01.000Z,11.437
2019-05-02T09:23:01.000Z,11.437
2019-05-02T09:24:01.000Z,11.375
2019-05-02T09:25:02.000Z,11.375
2019-05-02T09:26:01.000Z,11.375
2019-05-02T09:27:01.000Z,11.375
2019-05-02T09:28:02.000Z,11.375
2019-05-02T09:29:01.000Z,11.375
2019-05-02T09:30:02.000Z,11.375
2019-05-02T09:31:01.000Z,11.312
2019-05-02T09:32:01.000Z,11.375
2019-05-02T09:33:01.000Z,11.375
2019-05-02T09:34:01.000Z,11.375
2019-05-02T09:35:01.000Z,11.375
2019-05-02T09:36:01.000Z,11.375
2019-05-02T09:37:02.000Z,11.187
2019-05-02T09:38:02.000Z,11.312
2019-05-02T09:39:01.000Z,11.312
2019-05-02T09:40:01.000Z,11.375
2019-05-02T09:41:02.000Z,11.437
2019-05-02T09:42:02.000Z,11.375
2019-05-02T09:43:01.000Z,11.437
2019-05-02T09:44:01.000Z,11.5
2019-05-02T09:45:01.000Z,11.5
2019-05-02T09:46:02.000Z,11.625
2019-05-02T09:47:02.000Z,11.687
2019-05-02T09:48:02.000Z,11.812
2019-05-02T09:49:02.000Z,11.937
2019-05-02T09:50:01.000Z,12.062
2019-05-02T09:51:01.000Z,12.062
2019-05-02T09:52:02.000Z,12.125
2019-05-02T09:53:01.000Z,12.187
2019-05-02T09:54:02.000Z,12.187
2019-05-02T09:55:02.000Z,12.187
2019-05-02T09:56:01.000Z,12.187
2019-05-02T09:57:01.000Z,12.187
2019-05-02T09:58:02.000Z,12.187
2019-05-02T09:59:02.000Z,12.125
2019-05-02T10:00:02.000Z,12.062
2019-05-02T10:01:01.000Z,11.937
2019-05-02T10:02:01.000Z,11.875
2019-05-02T10:03:02.000Z,11.875
2019-05-02T10:04:01.000Z,11.937
2019-05-02T10:05:01.000Z,12
2019-05-02T10:06:02.000Z,12.062
2019-05-02T10:07:02.000Z,12.312
2019-05-02T10:08:01.000Z,12.625
2019-05-02T10:09:02.000Z,12.5
2019-05-02T10:10:01.000Z,12.562
2019-05-02T10:11:01.000Z,12.562
2019-05-02T10:12:02.000Z,12.562
2019-05-02T10:13:01.000Z,12.562
2019-05-02T10:14:01.000Z,12.437
2019-05-02T10:15:01.000Z,12.437
2019-05-02T10:16:02.000Z,12.437
2019-05-02T10:17:01.000Z,12.437
2019-05-02T10:18:01.000Z,12.437
2019-05-02T10:19:01.000Z,12.562
2019-05-02T10:20:01.000Z,12.687
2019-05-02T10:21:01.000Z,12.687
2019-05-02T10:22:01.000Z,12.437
2019-05-02T10:23:02.000Z,12.312
2019-05-02T10:24:01.000Z,12.25
2019-05-02T10:25:01.000Z,12.25
2019-05-02T10:26:02.000Z,12.25
2019-05-02T10:27:02.000Z,12.437
2019-05-02T10:28:01.000Z,12.5
2019-05-02T10:29:01.000Z,12.562
2019-05-02T10:30:02.000Z,12.687
2019-05-02T10:31:01.000Z,12.812
2019-05-02T10:32:01.000Z,12.812
2019-05-02T10:33:02.000Z,12.812
2019-05-02T10:34:02.000Z,12.812
2019-05-02T10:35:01.000Z,12.875
2019-05-02T10:36:01.000Z,12.937
2019-05-02T10:37:01.000Z,12.937
2019-05-02T10:38:01.000Z,12.937
2019-05-02T10:39:02.000Z,12.75
2019-05-02T10:40:01.000Z,12.437
2019-05-02T10:41:02.000Z,12.25
2019-05-02T10:42:01.000Z,12.187
2019-05-02T10:43:02.000Z,12.25
2019-05-02T10:44:01.000Z,12.312
2019-05-02T10:45:01.000Z,12.437
2019-05-02T10:46:02.000Z,12.437
2019-05-02T10:47:02.000Z,12.625
2019-05-02T10:48:01.000Z,12.687
2019-05-02T10:49:02.000Z,12.875
2019-05-02T10:50:01.000Z,13
2019-05-02T10:51:01.000Z,13.062
2019-05-02T10:52:02.000Z,13
2019-05-02T10:53:01.000Z,12.875
2019-05-02T10:54:01.000Z,12.812
2019-05-02T10:55:02.000Z,12.75
2019-05-02T10:56:01.000Z,12.812
2019-05-02T10:57:01.000Z,12.937
2019-05-02T10:58:01.000Z,12.812
2019-05-02T10:59:01.000Z,12.625
2019-05-02T11:00:02.000Z,12.375
2019-05-02T11:01:02.000Z,12.312
2019-05-02T11:02:01.000Z,12.25
2019-05-02T11:03:02.000Z,12.312
2019-05-02T11:04:02.000Z,12.375
2019-05-02T11:05:01.000Z,12.25
2019-05-02T11:06:02.000Z,12.187
2019-05-02T11:07:01.000Z,12.25
2019-05-02T11:08:01.000Z,12.25
2019-05-02T11:09:02.000Z,12.312
2019-05-02T11:10:01.000Z,12.25
2019-05-02T11:11:02.000Z,12
2019-05-02T11:12:01.000Z,11.937
2019-05-02T11:13:01.000Z,12
2019-05-02T11:14:01.000Z,12.062
2019-05-02T11:15:02.000Z,12.25
2019-05-02T11:16:01.000Z,12.312
2019-05-02T11:17:01.000Z,12.437
2019-05-02T11:18:02.000Z,12.437
2019-05-02T11:19:02.000Z,12.625
2019-05-02T11:20:01.000Z,12.75
2019-05-02T11:21:01.000Z,12.812
2019-05-02T11:22:02.000Z,12.812
2019-05-02T11:23:01.000Z,12.5
2019-05-02T11:24:01.000Z,12.375
2019-05-02T11:25:02.000Z,12.375
2019-05-02T11:26:01.000Z,12.312
2019-05-02T11:27:02.000Z,12.312
2019-05-02T11:28:02.000Z,12.375
2019-05-02T11:29:01.000Z,12.312
2019-05-02T11:30:01.000Z,12.25
2019-05-02T11:31:02.000Z,12.375
2019-05-02T11:32:01.000Z,12.437
2019-05-02T11:33:01.000Z,12.5
2019-05-02T11:34:01.000Z,12.562
2019-05-02T11:35:01.000Z,12.625
2019-05-02T11:36:01.000Z,12.687
2019-05-02T11:37:01.000Z,12.687
2019-05-02T11:38:01.000Z,12.625
2019-05-02T11:39:01.000Z,12.562
2019-05-02T11:40:01.000Z,12.625
2019-05-02T11:41:02.000Z,12.5
2019-05-02T11:42:02.000Z,12.437
2019-05-02T11:43:01.000Z,12.5
2019-05-02T11:44:01.000Z,12.5
2019-05-02T11:45:01.000Z,12.687
2019-05-02T11:46:02.000Z,12.812
2019-05-02T11:47:01.000Z,12.937
2019-05-02T11:48:01.000Z,12.937
2019-05-02T11:49:01.000Z,13
2019-05-02T11:50:01.000Z,13.062
2019-05-02T11:51:02.000Z,13.062
2019-05-02T11:52:02.000Z,13
2019-05-02T11:53:01.000Z,13
2019-05-02T11:54:01.000Z,12.937
2019-05-02T11:55:02.000Z,12.937
2019-05-02T11:56:01.000Z,12.937
2019-05-02T11:57:02.000Z,12.937
2019-05-02T11:58:02.000Z,12.937
2019-05-02T11:59:01.000Z,12.937
2019-05-02T12:00:01.000Z,13.187
2019-05-02T12:01:01.000Z,13.062
2019-05-02T12:02:02.000Z,13.125
2019-05-02T12:03:01.000Z,13.187
2019-05-02T12:04:01.000Z,13.187
2019-05-02T12:05:02.000Z,13.375
2019-05-02T12:06:01.000Z,13.312
2019-05-02T12:07:01.000Z,13.187
2019-05-02T12:08:02.000Z,13.125
2019-05-02T12:09:01.000Z,13.187
2019-05-02T12:10:02.000Z,13.187
2019-05-02T12:11:01.000Z,13
2019-05-02T12:12:02.000Z,12.875
2019-05-02T12:13:01.000Z,12.875
2019-05-02T12:14:01.000Z,13
2019-05-02T12:15:02.000Z,13.062
2019-05-02T12:16:02.000Z,13.125
2019-05-02T12:17:01.000Z,13.187
2019-05-02T12:18:02.000Z,13.187
2019-05-02T12:19:02.000Z,13.312
2019-05-02T12:20:02.000Z,13.312
2019-05-02T12:21:01.000Z,13.375
2019-05-02T12:22:01.000Z,13.437
2019-05-02T12:23:02.000Z,13.375
2019-05-02T12:24:01.000Z,13.187
2019-05-02T12:25:02.000Z,13.187
2019-05-02T12:26:01.000Z,13
2019-05-02T12:27:01.000Z,13
2019-05-02T12:28:02.000Z,13.062
2019-05-02T12:29:02.000Z,13.062
2019-05-02T12:30:01.000Z,13.25
2019-05-02T12:31:01.000Z,13.312
2019-05-02T12:32:01.000Z,13.312
2019-05-02T12:33:01.000Z,13.437
2019-05-02T12:34:01.000Z,13.437
2019-05-02T12:40:01.000Z,13.125
2019-05-02T12:41:02.000Z,13.187
2019-05-02T12:42:01.000Z,13.187
2019-05-02T12:43:01.000Z,13.312
2019-05-02T12:44:02.000Z,13.25
2019-05-02T12:45:02.000Z,13.375
2019-05-02T12:46:01.000Z,13.375
2019-05-02T12:47:02.000Z,13.437
2019-05-02T12:48:01.000Z,13.562
2019-05-02T12:49:01.000Z,13.625
2019-05-02T12:50:01.000Z,13.687
2019-05-02T12:51:01.000Z,13.75
2019-05-02T12:52:01.000Z,13.75
2019-05-02T12:53:01.000Z,13.687
2019-05-02T12:54:02.000Z,13.562
2019-05-02T12:55:01.000Z,13.625
2019-05-02T12:56:02.000Z,13.812
2019-05-02T12:57:01.000Z,13.812
2019-05-02T12:58:01.000Z,13.875
2019-05-02T12:59:01.000Z,13.75
2019-05-02T13:00:02.000Z,13.562
2019-05-02T13:01:01.000Z,13.5
2019-05-02T13:02:01.000Z,13.562